createdAt,value
2017-12-20T00:00:32.426Z,3.02
2017-12-20T00:03:00.766Z,3.03
2017-12-20T00:05:29.122Z,3.01
2017-12-20T00:07:57.498Z,2.90
2017-12-20T00:10:25.829Z,2.93
2017-12-20T00:12:54.247Z,2.96
2017-12-20T00:15:22.571Z,2.92
2017-12-20T00:17:51.675Z,2.90
2017-12-20T00:20:20.038Z,2.77
2017-12-20T00:22:49.134Z,2.74
2017-12-20T00:25:18.287Z,2.80
2017-12-20T00:27:46.618Z,2.81
2017-12-20T00:30:14.980Z,2.79
2017-12-20T00:32:44.126Z,2.86
2017-12-20T00:35:13.232Z,2.88
2017-12-20T00:37:41.606Z,2.81
2017-12-20T00:40:09.947Z,2.81
2017-12-20T00:42:38.298Z,2.79
2017-12-20T00:45:06.662Z,2.79
2017-12-20T00:47:35.814Z,2.84
2017-12-20T00:50:04.201Z,2.88
2017-12-20T00:52:32.524Z,2.88
2017-12-20T00:55:00.883Z,2.92
2017-12-20T00:57:29.222Z,2.95
2017-12-20T00:59:57.593Z,2.99
2017-12-20T01:02:25.974Z,2.82
2017-12-20T01:04:54.314Z,2.86
2017-12-20T01:07:22.714Z,2.92
2017-12-20T01:09:51.841Z,2.87
2017-12-20T01:12:20.218Z,2.84
2017-12-20T01:14:48.602Z,2.82
2017-12-20T01:17:16.946Z,2.76
2017-12-20T01:19:45.294Z,2.70
2017-12-20T01:22:13.670Z,2.73
2017-12-20T01:24:42.012Z,2.75
2017-12-20T01:27:11.326Z,2.71
2017-12-20T01:29:39.697Z,2.71
2017-12-20T01:32:08.082Z,2.58
2017-12-20T01:34:36.426Z,2.57
2017-12-20T01:37:04.766Z,2.64
2017-12-20T01:39:33.137Z,2.66
2017-12-20T01:42:01.519Z,2.65
2017-12-20T01:44:29.866Z,2.59
2017-12-20T01:46:58.283Z,2.62
2017-12-20T01:49:26.662Z,2.63
2017-12-20T01:51:55.786Z,2.62
2017-12-20T01:54:24.174Z,2.56
2017-12-20T01:56:52.506Z,2.54
2017-12-20T01:59:20.873Z,2.56
2017-12-20T02:01:49.230Z,2.53
2017-12-20T02:04:17.558Z,2.42
2017-12-20T02:06:46.689Z,2.40
2017-12-20T02:09:15.075Z,2.47
2017-12-20T02:11:43.450Z,2.49
2017-12-20T02:14:11.834Z,2.45
2017-12-20T02:16:40.208Z,2.50
2017-12-20T02:19:08.557Z,2.59
2017-12-20T02:21:36.943Z,2.63
2017-12-20T02:24:05.319Z,2.71
2017-12-20T02:26:33.650Z,2.74
2017-12-20T02:29:02.008Z,2.69
2017-12-20T02:31:30.394Z,2.66
2017-12-20T02:33:58.742Z,2.61
2017-12-20T02:36:27.884Z,2.59
2017-12-20T02:38:56.322Z,2.56
2017-12-20T02:41:24.693Z,2.56
2017-12-20T02:43:53.806Z,2.50
2017-12-20T02:46:22.174Z,2.44
2017-12-20T02:48:50.540Z,2.38
2017-12-20T02:51:18.929Z,2.38
2017-12-20T02:53:47.317Z,2.43
2017-12-20T02:56:15.654Z,2.57
2017-12-20T02:58:44.821Z,2.48
2017-12-20T03:01:13.166Z,2.47
2017-12-20T03:03:41.529Z,2.48
2017-12-20T03:06:09.890Z,2.47
2017-12-20T03:08:38.284Z,2.38
2017-12-20T03:11:06.662Z,2.28
2017-12-20T03:13:35.029Z,2.28
2017-12-20T03:16:04.138Z,2.31
2017-12-20T03:18:32.549Z,2.30
2017-12-20T03:21:00.889Z,2.29
2017-12-20T03:23:29.236Z,2.33
2017-12-20T03:25:57.622Z,2.34
2017-12-20T03:28:26.781Z,2.31
2017-12-20T03:30:55.130Z,2.31
2017-12-20T03:33:23.473Z,2.28
2017-12-20T03:35:52.615Z,2.27
2017-12-20T03:38:20.951Z,2.25
2017-12-20T03:40:50.119Z,2.38
2017-12-20T03:43:18.449Z,2.29
2017-12-20T03:45:46.860Z,2.38
2017-12-20T03:48:15.237Z,2.34
2017-12-20T03:50:43.620Z,2.35
2017-12-20T03:53:11.988Z,2.32
2017-12-20T03:55:40.333Z,2.35
2017-12-20T03:58:08.726Z,2.36
2017-12-20T04:00:37.064Z,2.33
2017-12-20T04:03:06.250Z,2.34
2017-12-20T04:05:34.592Z,2.34
2017-12-20T04:08:02.928Z,2.32
2017-12-20T04:10:31.321Z,2.18
2017-12-20T04:13:00.488Z,2.25
2017-12-20T04:15:29.609Z,2.25
2017-12-20T04:17:57.969Z,2.26
2017-12-20T04:20:27.069Z,2.18
2017-12-20T04:22:55.442Z,2.19
2017-12-20T04:25:23.835Z,2.29
2017-12-20T04:27:52.180Z,2.33
2017-12-20T04:30:20.525Z,2.36
2017-12-20T04:32:48.912Z,2.38
2017-12-20T04:35:17.261Z,2.37
2017-12-20T04:37:45.620Z,2.42
2017-12-20T04:40:13.963Z,2.45
2017-12-20T04:42:42.336Z,2.44
2017-12-20T04:45:10.700Z,2.46
2017-12-20T04:47:39.078Z,2.43
2017-12-20T04:50:07.449Z,2.41
2017-12-20T04:52:35.824Z,2.52
2017-12-20T04:55:04.172Z,2.56
2017-12-20T04:57:32.548Z,2.48
2017-12-20T05:00:00.920Z,2.55
2017-12-20T05:02:29.257Z,2.61
2017-12-20T05:04:57.636Z,2.63
2017-12-20T05:07:25.988Z,2.60
2017-12-20T05:09:54.371Z,2.60
2017-12-20T05:12:22.726Z,2.66
2017-12-20T05:14:51.060Z,2.64
2017-12-20T05:17:19.439Z,2.64
2017-12-20T05:19:47.777Z,2.63
2017-12-20T05:22:16.117Z,2.62
2017-12-20T05:24:44.500Z,2.88
2017-12-20T05:27:12.855Z,2.74
2017-12-20T05:29:42.011Z,2.46
2017-12-20T05:32:10.392Z,2.42
2017-12-20T05:34:38.759Z,2.48
2017-12-20T05:37:07.132Z,2.50
2017-12-20T05:39:35.452Z,2.37
2017-12-20T05:42:03.837Z,2.36
2017-12-20T05:44:32.948Z,2.36
2017-12-20T05:47:01.363Z,2.38
2017-12-20T05:49:29.703Z,2.36
2017-12-20T05:51:58.792Z,2.45
2017-12-20T05:54:27.927Z,2.50
2017-12-20T05:56:56.258Z,2.38
2017-12-20T05:59:25.407Z,2.30
2017-12-20T06:01:53.752Z,2.30
2017-12-20T06:04:22.127Z,2.31
2017-12-20T06:06:51.260Z,2.35
2017-12-20T06:09:19.599Z,2.39
2017-12-20T06:11:47.996Z,2.42
2017-12-20T06:14:16.339Z,2.44
2017-12-20T06:16:44.679Z,2.32
2017-12-20T06:19:13.075Z,2.31
2017-12-20T06:21:41.399Z,2.31
2017-12-20T06:24:10.579Z,2.07
2017-12-20T06:26:38.931Z,2.11
2017-12-20T06:29:07.303Z,2.18
2017-12-20T06:31:36.855Z,2.30
2017-12-20T06:34:05.811Z,2.27
2017-12-20T06:36:34.139Z,2.20
2017-12-20T06:39:02.563Z,2.19
2017-12-20T06:41:30.963Z,2.14
2017-12-20T06:44:00.063Z,2.17
2017-12-20T06:46:29.203Z,2.19
2017-12-20T06:48:57.535Z,2.16
2017-12-20T06:51:26.671Z,2.16
2017-12-20T06:53:55.051Z,2.27
2017-12-20T06:56:23.398Z,2.10
2017-12-20T06:58:52.523Z,1.94
2017-12-20T07:01:20.875Z,1.90
2017-12-20T07:03:49.363Z,1.94
2017-12-20T07:06:17.691Z,1.96
2017-12-20T07:08:46.055Z,1.94
2017-12-20T07:11:14.387Z,1.91
2017-12-20T07:13:42.767Z,1.72
2017-12-20T07:16:11.106Z,1.61
2017-12-20T07:18:39.495Z,1.48
2017-12-20T07:21:08.641Z,1.36
2017-12-20T07:23:36.989Z,1.35
2017-12-20T07:26:05.363Z,1.53
2017-12-20T07:28:34.481Z,1.76
2017-12-20T07:31:02.850Z,1.90
2017-12-20T07:33:31.190Z,1.95
2017-12-20T07:35:59.593Z,2.12
2017-12-20T07:38:28.713Z,2.25
2017-12-20T07:40:57.863Z,2.33
2017-12-20T07:43:26.223Z,2.39
2017-12-20T07:45:54.547Z,2.45
2017-12-20T07:48:22.931Z,2.54
2017-12-20T07:50:51.275Z,2.62
2017-12-20T07:53:19.655Z,2.73
2017-12-20T07:55:47.999Z,2.72
2017-12-20T07:58:16.355Z,2.74
2017-12-20T08:00:44.750Z,2.74
2017-12-20T08:03:13.099Z,2.61
2017-12-20T08:05:41.483Z,2.58
2017-12-20T08:08:09.863Z,2.50
2017-12-20T08:10:38.262Z,2.54
2017-12-20T08:13:06.591Z,2.62
2017-12-20T08:15:35.763Z,2.61
2017-12-20T08:18:04.406Z,2.70
2017-12-20T08:20:32.903Z,2.65
2017-12-20T08:23:01.300Z,2.55
2017-12-20T08:25:29.760Z,2.47
2017-12-20T08:27:58.180Z,2.38
2017-12-20T08:30:26.579Z,2.34
2017-12-20T08:32:54.904Z,2.48
2017-12-20T08:35:23.282Z,2.68
2017-12-20T08:37:51.619Z,2.79
2017-12-20T08:40:20.171Z,2.67
2017-12-20T08:42:49.334Z,2.70
2017-12-20T08:45:17.671Z,2.64
2017-12-20T08:47:46.116Z,2.65
2017-12-20T08:50:15.467Z,2.75
2017-12-20T08:52:43.854Z,2.85
2017-12-20T08:55:12.211Z,2.88
2017-12-20T08:57:40.687Z,3.01
2017-12-20T09:00:09.127Z,3.10
2017-12-20T09:02:37.591Z,3.39
2017-12-20T09:05:06.083Z,3.32
2017-12-20T09:07:34.523Z,3.41
2017-12-20T09:10:02.895Z,3.43
2017-12-20T09:12:31.230Z,3.34
2017-12-20T09:14:59.626Z,3.43
2017-12-20T09:17:28.742Z,3.65
2017-12-20T09:19:57.919Z,3.75
2017-12-20T09:22:26.315Z,3.81
2017-12-20T09:24:54.674Z,3.86
2017-12-20T09:27:23.829Z,3.76
2017-12-20T09:29:52.228Z,3.80
2017-12-20T09:32:20.579Z,4.03
2017-12-20T09:34:48.985Z,4.23
2017-12-20T09:37:17.498Z,4.27
2017-12-20T09:39:45.962Z,4.14
2017-12-20T09:42:14.402Z,3.97
2017-12-20T09:44:42.776Z,4.23
2017-12-20T09:47:11.102Z,4.27
2017-12-20T09:49:40.236Z,4.07
2017-12-20T09:52:08.599Z,4.32
2017-12-20T09:54:37.047Z,4.55
2017-12-20T09:57:05.413Z,4.73
2017-12-20T09:59:33.902Z,4.74
2017-12-20T10:02:02.262Z,4.45
2017-12-20T10:04:30.607Z,4.51
2017-12-20T10:06:58.998Z,4.68
2017-12-20T10:09:27.426Z,4.73
2017-12-20T10:11:56.634Z,4.75
2017-12-20T10:14:24.978Z,4.87
2017-12-20T10:16:53.354Z,4.96
2017-12-20T10:19:21.683Z,5.01
2017-12-20T10:21:50.010Z,5.05
2017-12-20T10:24:18.460Z,4.97
2017-12-20T10:26:46.816Z,4.99
2017-12-20T10:29:15.156Z,4.99
2017-12-20T10:31:43.638Z,5.06
2017-12-20T10:34:12.082Z,5.18
2017-12-20T10:36:40.628Z,5.18
2017-12-20T10:39:09.784Z,5.19
2017-12-20T10:41:38.154Z,4.78
2017-12-20T10:44:06.757Z,4.59
2017-12-20T10:46:35.261Z,4.92
2017-12-20T10:49:04.398Z,5.19
2017-12-20T10:51:32.741Z,5.35
2017-12-20T10:54:01.245Z,5.59
2017-12-20T10:56:30.469Z,5.78
2017-12-20T10:58:58.853Z,5.83
2017-12-20T11:01:27.226Z,5.77
2017-12-20T11:03:55.719Z,5.79
2017-12-20T11:06:24.086Z,5.68
2017-12-20T11:08:52.456Z,5.59
2017-12-20T11:11:20.852Z,5.59
2017-12-20T11:13:49.327Z,5.70
2017-12-20T11:16:17.834Z,5.77
2017-12-20T11:18:46.945Z,5.77
2017-12-20T11:21:16.130Z,5.86
2017-12-20T11:23:45.533Z,5.74
2017-12-20T11:26:14.843Z,5.78
2017-12-20T11:28:43.969Z,5.82
2017-12-20T11:31:12.381Z,5.96
2017-12-20T11:33:40.715Z,6.05
2017-12-20T11:36:09.080Z,6.04
2017-12-20T11:38:37.468Z,6.04
2017-12-20T11:41:05.812Z,6.13
2017-12-20T11:43:34.202Z,6.06
2017-12-20T11:46:03.385Z,5.91
2017-12-20T11:48:31.992Z,6.03
2017-12-20T11:51:00.489Z,6.04
2017-12-20T11:53:30.832Z,6.04
2017-12-20T11:55:59.665Z,5.81
2017-12-20T11:58:28.953Z,6.08
2017-12-20T12:00:57.377Z,6.09
2017-12-20T12:03:25.901Z,6.08
2017-12-20T12:05:54.449Z,6.10
2017-12-20T12:08:22.845Z,6.05
2017-12-20T12:10:51.233Z,6.08
2017-12-20T12:13:19.832Z,6.10
2017-12-20T12:15:48.272Z,5.92
2017-12-20T12:18:16.729Z,6.03
2017-12-20T12:20:45.300Z,5.79
2017-12-20T12:23:13.765Z,5.67
2017-12-20T12:25:44.609Z,5.84
2017-12-20T12:28:13.176Z,5.98
2017-12-20T12:30:41.628Z,6.03
2017-12-20T12:33:10.077Z,5.97
2017-12-20T12:35:38.595Z,5.66
2017-12-20T12:38:08.409Z,5.53
2017-12-20T12:40:37.648Z,5.31
2017-12-20T12:43:07.381Z,5.46
2017-12-20T12:45:35.780Z,5.64
2017-12-20T12:48:04.168Z,5.67
2017-12-20T12:50:32.565Z,5.67
2017-12-20T12:53:00.960Z,5.58
2017-12-20T12:55:30.076Z,5.64
2017-12-20T12:57:59.232Z,5.63
2017-12-20T13:00:27.612Z,5.50
2017-12-20T13:02:55.968Z,5.58
2017-12-20T13:05:24.368Z,5.45
2017-12-20T13:07:52.720Z,5.35
2017-12-20T13:10:21.084Z,5.45
2017-12-20T13:12:49.452Z,5.46
2017-12-20T13:15:17.828Z,5.48
2017-12-20T13:17:46.267Z,5.37
2017-12-20T13:20:14.652Z,5.41
2017-12-20T13:22:42.999Z,5.42
2017-12-20T13:25:11.380Z,5.39
2017-12-20T13:27:39.728Z,5.12
2017-12-20T13:30:08.128Z,4.93
2017-12-20T13:32:36.597Z,5.01
2017-12-20T13:35:05.672Z,5.06
2017-12-20T13:37:34.092Z,5.08
2017-12-20T13:40:02.552Z,5.09
2017-12-20T13:42:31.148Z,5.07
2017-12-20T13:44:59.676Z,5.10
2017-12-20T13:47:28.852Z,5.04
2017-12-20T13:49:57.268Z,4.98
2017-12-20T13:52:25.647Z,4.91
2017-12-20T13:54:53.999Z,4.86
2017-12-20T13:57:23.121Z,4.73
2017-12-20T13:59:51.509Z,4.73
2017-12-20T14:02:19.888Z,4.78
2017-12-20T14:04:48.315Z,4.70
2017-12-20T14:07:16.715Z,4.54
2017-12-20T14:09:46.484Z,4.52
2017-12-20T14:12:14.845Z,4.57
2017-12-20T14:14:43.240Z,4.69
2017-12-20T14:17:11.603Z,4.64
2017-12-20T14:19:40.351Z,4.49
2017-12-20T14:22:08.708Z,4.59
2017-12-20T14:24:37.051Z,4.69
2017-12-20T14:27:05.424Z,4.53
2017-12-20T14:29:33.764Z,4.47
2017-12-20T14:32:02.156Z,4.36
2017-12-20T14:34:30.508Z,4.46
2017-12-20T14:36:58.848Z,4.38
2017-12-20T14:39:27.235Z,4.29
2017-12-20T14:41:55.580Z,4.34
2017-12-20T14:44:24.850Z,4.42
2017-12-20T14:46:53.995Z,4.35
2017-12-20T14:49:22.384Z,4.42
2017-12-20T14:51:50.743Z,4.36
2017-12-20T14:54:19.175Z,4.36
2017-12-20T14:56:48.283Z,4.27
2017-12-20T14:59:17.430Z,4.27
2017-12-20T15:01:45.816Z,4.20
2017-12-20T15:04:14.251Z,4.31
2017-12-20T15:06:43.831Z,4.39
2017-12-20T15:09:12.939Z,4.18
2017-12-20T15:11:42.107Z,4.19
2017-12-20T15:14:10.451Z,4.28
2017-12-20T15:16:38.836Z,4.28
2017-12-20T15:19:07.251Z,4.18
2017-12-20T15:21:35.592Z,4.06
2017-12-20T15:24:03.943Z,4.19
2017-12-20T15:26:32.394Z,4.16
2017-12-20T15:29:00.798Z,4.09
2017-12-20T15:31:29.152Z,4.12
2017-12-20T15:33:57.631Z,4.13
2017-12-20T15:36:26.751Z,4.05
2017-12-20T15:38:55.127Z,3.93
2017-12-20T15:41:23.803Z,3.97
2017-12-20T15:43:52.268Z,4.06
2017-12-20T15:46:20.635Z,3.94
2017-12-20T15:48:49.357Z,3.97
2017-12-20T15:51:17.732Z,4.03
2017-12-20T15:53:46.169Z,4.15
2017-12-20T15:56:14.563Z,4.22
2017-12-20T15:58:42.944Z,4.27
2017-12-20T16:01:11.356Z,4.26
2017-12-20T16:03:39.823Z,4.32
2017-12-20T16:06:08.987Z,4.32
2017-12-20T16:08:37.366Z,4.38
2017-12-20T16:11:05.787Z,4.39
2017-12-20T16:13:34.216Z,4.40
2017-12-20T16:16:02.630Z,4.40
2017-12-20T16:18:31.027Z,4.33
2017-12-20T16:20:59.423Z,4.36
2017-12-20T16:23:27.812Z,4.32
2017-12-20T16:25:56.190Z,4.32
2017-12-20T16:28:24.584Z,4.18
2017-12-20T16:30:52.937Z,4.14
2017-12-20T16:33:23.111Z,4.06
2017-12-20T16:35:51.518Z,4.08
2017-12-20T16:38:19.929Z,4.07
2017-12-20T16:40:48.294Z,4.16
2017-12-20T16:43:18.946Z,4.17
2017-12-20T16:45:47.328Z,4.12
2017-12-20T16:48:15.693Z,4.02
2017-12-20T16:50:44.098Z,4.05
2017-12-20T16:53:12.522Z,3.99
2017-12-20T16:55:40.903Z,3.95
2017-12-20T16:58:09.307Z,4.05
2017-12-20T17:00:37.676Z,4.06
2017-12-20T17:03:06.483Z,4.18
2017-12-20T17:05:35.918Z,4.27
2017-12-20T17:08:05.130Z,4.30
2017-12-20T17:10:34.335Z,4.20
2017-12-20T17:13:02.756Z,3.96
2017-12-20T17:15:31.443Z,3.87
2017-12-20T17:17:59.811Z,3.77
2017-12-20T17:20:28.298Z,3.72
2017-12-20T17:22:57.476Z,3.57
2017-12-20T17:25:26.634Z,3.57
2017-12-20T17:27:55.804Z,3.44
2017-12-20T17:30:25.156Z,3.67
2017-12-20T17:32:58.295Z,3.76
2017-12-20T17:35:28.526Z,3.80
2017-12-20T17:38:01.552Z,3.66
2017-12-20T17:40:30.645Z,3.64
2017-12-20T17:42:59.111Z,3.56
2017-12-20T17:45:29.550Z,3.51
2017-12-20T17:47:58.970Z,3.51
2017-12-20T17:50:28.433Z,3.58
2017-12-20T17:52:57.709Z,3.53
2017-12-20T17:55:26.885Z,3.51
2017-12-20T17:57:55.315Z,3.56
2017-12-20T18:00:23.811Z,3.53
2017-12-20T18:02:52.298Z,3.51
2017-12-20T18:05:20.663Z,3.53
2017-12-20T18:07:50.196Z,3.59
2017-12-20T18:10:19.164Z,3.65
2017-12-20T18:12:48.366Z,3.64
2017-12-20T18:15:16.755Z,3.64
2017-12-20T18:17:45.534Z,3.61
2017-12-20T18:20:14.046Z,3.65
2017-12-20T18:22:42.414Z,3.72
2017-12-20T18:25:11.602Z,3.76
2017-12-20T18:27:40.026Z,3.79
2017-12-20T18:30:08.527Z,3.83
2017-12-20T18:32:37.001Z,3.84
2017-12-20T18:35:05.526Z,3.83
2017-12-20T18:37:35.286Z,3.79
2017-12-20T18:40:05.218Z,3.85
2017-12-20T18:42:35.473Z,3.85
2017-12-20T18:45:05.177Z,3.93
2017-12-20T18:47:37.181Z,3.78
2017-12-20T18:50:09.229Z,4.00
2017-12-20T18:52:39.488Z,3.73
2017-12-20T18:55:08.590Z,3.88
2017-12-20T18:57:37.690Z,3.86
2017-12-20T19:00:06.869Z,3.91
2017-12-20T19:02:35.478Z,3.94
2017-12-20T19:05:05.158Z,3.96
2017-12-20T19:07:33.779Z,3.91
2017-12-20T19:10:02.203Z,3.92
2017-12-20T19:12:30.635Z,4.06
2017-12-20T19:14:59.533Z,4.13
2017-12-20T19:17:30.016Z,4.05
2017-12-20T19:19:59.717Z,4.16
2017-12-20T19:22:29.015Z,4.21
2017-12-20T19:24:57.477Z,4.19
2017-12-20T19:27:26.069Z,4.14
2017-12-20T19:29:54.487Z,4.12
2017-12-20T19:32:23.707Z,4.12
2017-12-20T19:34:53.254Z,4.03
2017-12-20T19:37:23.373Z,4.09
2017-12-20T19:39:51.786Z,4.14
2017-12-20T19:42:21.773Z,4.10
2017-12-20T19:44:50.257Z,4.15
2017-12-20T19:47:18.601Z,4.12
2017-12-20T19:49:47.007Z,4.12
2017-12-20T19:52:15.389Z,4.12
2017-12-20T19:54:43.771Z,4.17
2017-12-20T19:57:12.245Z,4.07
2017-12-20T19:59:41.369Z,4.11
2017-12-20T20:02:14.613Z,4.18
2017-12-20T20:04:43.257Z,4.17
2017-12-20T20:07:11.681Z,4.24
2017-12-20T20:09:41.015Z,4.16
2017-12-20T20:12:11.093Z,4.25
2017-12-20T20:14:40.117Z,4.18
2017-12-20T20:17:09.221Z,4.11
2017-12-20T20:19:37.574Z,4.06
2017-12-20T20:22:06.277Z,4.06
2017-12-20T20:24:36.642Z,4.12
2017-12-20T20:27:05.810Z,4.10
2017-12-20T20:29:34.841Z,4.14
2017-12-20T20:32:05.922Z,4.11
2017-12-20T20:34:35.175Z,4.13
2017-12-20T20:37:04.473Z,4.10
2017-12-20T20:39:33.074Z,4.05
2017-12-20T20:42:02.729Z,4.06
2017-12-20T20:44:34.289Z,4.01
2017-12-20T20:47:03.753Z,4.03
2017-12-20T20:49:33.173Z,4.03
2017-12-20T20:52:02.660Z,3.99
2017-12-20T20:54:32.921Z,4.05
2017-12-20T20:57:02.318Z,3.99
2017-12-20T20:59:31.525Z,4.04
2017-12-20T21:01:59.939Z,4.06
2017-12-20T21:04:28.449Z,4.05
2017-12-20T21:06:59.293Z,4.08
2017-12-20T21:09:28.631Z,4.12
2017-12-20T21:11:59.212Z,4.16
2017-12-20T21:14:28.204Z,4.21
2017-12-20T21:16:56.716Z,4.16
2017-12-20T21:19:25.132Z,4.17
2017-12-20T21:21:53.600Z,4.10
2017-12-20T21:24:22.772Z,4.11
2017-12-20T21:26:52.580Z,4.02
2017-12-20T21:29:21.024Z,4.06
2017-12-20T21:31:49.672Z,4.06
2017-12-20T21:34:20.564Z,4.01
2017-12-20T21:36:48.948Z,4.03
2017-12-20T21:39:17.411Z,4.03
2017-12-20T21:41:45.927Z,4.00
2017-12-20T21:44:14.523Z,4.02
2017-12-20T21:46:43.358Z,4.02
2017-12-20T21:49:11.785Z,4.03
2017-12-20T21:51:41.096Z,4.12
2017-12-20T21:54:09.656Z,4.11
2017-12-20T21:56:39.960Z,4.09
2017-12-20T21:59:08.648Z,4.04
2017-12-20T22:01:38.012Z,4.01
2017-12-20T22:04:06.538Z,4.05
2017-12-20T22:06:36.911Z,3.99
2017-12-20T22:09:06.504Z,3.95
2017-12-20T22:11:38.132Z,3.95
2017-12-20T22:14:08.188Z,3.95
2017-12-20T22:16:36.816Z,3.94
2017-12-20T22:19:05.383Z,3.93
2017-12-20T22:21:33.768Z,3.91
2017-12-20T22:24:02.107Z,3.90
2017-12-20T22:26:31.291Z,3.89
2017-12-20T22:29:01.386Z,3.92
2017-12-20T22:31:29.769Z,4.04
2017-12-20T22:33:58.151Z,4.05
2017-12-20T22:36:26.516Z,3.98
2017-12-20T22:38:54.903Z,4.05
2017-12-20T22:41:23.376Z,4.12
2017-12-20T22:43:51.715Z,4.20
2017-12-20T22:46:20.071Z,4.13
2017-12-20T22:48:49.212Z,4.11
2017-12-20T22:51:17.563Z,4.10
2017-12-20T22:53:45.927Z,4.04
2017-12-20T22:56:14.312Z,4.03
2017-12-20T22:58:42.663Z,3.96
2017-12-20T23:01:11.063Z,3.98
2017-12-20T23:03:39.391Z,3.97
2017-12-20T23:06:07.783Z,3.98
2017-12-20T23:08:36.140Z,3.98
2017-12-20T23:11:04.491Z,3.96
2017-12-20T23:13:32.859Z,3.94
2017-12-20T23:16:01.203Z,4.00
2017-12-20T23:18:29.759Z,4.02
2017-12-20T23:20:58.132Z,4.12
2017-12-20T23:23:27.436Z,4.10
2017-12-20T23:25:55.794Z,4.08
2017-12-20T23:28:24.996Z,4.04
2017-12-20T23:30:53.369Z,4.00
2017-12-20T23:33:21.804Z,4.05
2017-12-20T23:35:50.143Z,4.13
2017-12-20T23:38:18.523Z,4.10
2017-12-20T23:40:46.911Z,4.06
2017-12-20T23:43:15.283Z,4.04
2017-12-20T23:45:43.623Z,4.06
2017-12-20T23:48:12.015Z,4.14
2017-12-20T23:50:40.387Z,4.03
2017-12-20T23:53:08.763Z,4.01
2017-12-20T23:55:37.135Z,4.01
2017-12-20T23:58:05.459Z,4.02
